sensor_id;sensor_type;location;lat;lon;timestamp;temperature;humidity
21115;DHT22;10715;48.546;9.896;2023-05-10T00:00:13;13.00;99.90
21115;DHT22;10715;48.546;9.896;2023-05-10T00:02:39;13.00;99.90
21115;DHT22;10715;48.546;9.896;2023-05-10T00:05:06;13.00;99.90
21115;DHT22;10715;48.546;9.896;2023-05-10T00:07:32;12.90;99.90
21115;DHT22;10715;48.546;9.896;2023-05-10T00:09:58;13.00;99.90
21115;DHT22;10715;48.546;9.896;2023-05-10T00:12:24;13.00;99.90
21115;DHT22;10715;48.546;9.896;2023-05-10T00:14:49;13.00;99.90
21115;DHT22;10715;48.546;9.896;2023-05-10T00:17:15;13.00;99.90
21115;DHT22;10715;48.546;9.896;2023-05-10T00:19:41;12.90;99.90
21115;DHT22;10715;48.546;9.896;2023-05-10T00:22:06;13.00;99.90
21115;DHT22;10715;48.546;9.896;2023-05-10T00:24:32;12.90;99.90
21115;DHT22;10715;48.546;9.896;2023-05-10T00:26:57;12.90;99.90
21115;DHT22;10715;48.546;9.896;2023-05-10T00:29:23;13.00;99.90
21115;DHT22;10715;48.546;9.896;2023-05-10T00:31:49;12.90;99.90
21115;DHT22;10715;48.546;9.896;2023-05-10T00:34:15;12.90;99.90
21115;DHT22;10715;48.546;9.896;2023-05-10T00:36:41;12.90;99.90
21115;DHT22;10715;48.546;9.896;2023-05-10T00:39:06;12.80;99.90
21115;DHT22;10715;48.546;9.896;2023-05-10T00:41:33;12.80;99.90
21115;DHT22;10715;48.546;9.896;2023-05-10T00:43:59;12.80;99.90
21115;DHT22;10715;48.546;9.896;2023-05-10T00:46:25;12.90;99.90
21115;DHT22;10715;48.546;9.896;2023-05-10T00:48:51;12.90;99.90
21115;DHT22;10715;48.546;9.896;2023-05-10T00:51:17;12.90;99.90
21115;DHT22;10715;48.546;9.896;2023-05-10T00:53:45;12.90;99.90
21115;DHT22;10715;48.546;9.896;2023-05-10T00:56:11;12.80;99.90
21115;DHT22;10715;48.546;9.896;2023-05-10T00:58:38;12.80;99.90
21115;DHT22;10715;48.546;9.896;2023-05-10T01:01:04;12.80;99.90
21115;DHT22;10715;48.546;9.896;2023-05-10T01:03:32;12.80;99.90
21115;DHT22;10715;48.546;9.896;2023-05-10T01:05:58;12.70;99.90
21115;DHT22;10715;48.546;9.896;2023-05-10T01:08:24;12.70;99.90
21115;DHT22;10715;48.546;9.896;2023-05-10T01:10:50;12.80;99.90
21115;DHT22;10715;48.546;9.896;2023-05-10T01:15:56;12.70;99.90
21115;DHT22;10715;48.546;9.896;2023-05-10T01:18:22;12.70;99.90
21115;DHT22;10715;48.546;9.896;2023-05-10T01:20:55;12.70;99.90
21115;DHT22;10715;48.546;9.896;2023-05-10T01:23:45;12.70;99.90
21115;DHT22;10715;48.546;9.896;2023-05-10T01:34:57;12.60;99.90
21115;DHT22;10715;48.546;9.896;2023-05-10T01:37:31;12.50;99.90
21115;DHT22;10715;48.546;9.896;2023-05-10T01:40:19;12.50;99.90
21115;DHT22;10715;48.546;9.896;2023-05-10T01:43:17;12.50;99.90
21115;DHT22;10715;48.546;9.896;2023-05-10T01:48:23;12.50;99.90
21115;DHT22;10715;48.546;9.896;2023-05-10T01:50:52;12.50;99.90
21115;DHT22;10715;48.546;9.896;2023-05-10T01:53:20;12.50;99.90
21115;DHT22;10715;48.546;9.896;2023-05-10T01:55:49;12.50;99.90
21115;DHT22;10715;48.546;9.896;2023-05-10T01:58:22;12.50;99.90
21115;DHT22;10715;48.546;9.896;2023-05-10T02:00:52;12.50;99.90
21115;DHT22;10715;48.546;9.896;2023-05-10T02:03:22;12.40;99.90
21115;DHT22;10715;48.546;9.896;2023-05-10T02:05:49;12.40;99.90
21115;DHT22;10715;48.546;9.896;2023-05-10T02:08:17;12.50;99.90
21115;DHT22;10715;48.546;9.896;2023-05-10T02:10:45;12.40;99.90
21115;DHT22;10715;48.546;9.896;2023-05-10T02:13:12;12.40;99.90
21115;DHT22;10715;48.546;9.896;2023-05-10T02:15:40;12.40;99.90
21115;DHT22;10715;48.546;9.896;2023-05-10T02:18:07;12.30;99.90
21115;DHT22;10715;48.546;9.896;2023-05-10T02:20:35;12.30;99.90
21115;DHT22;10715;48.546;9.896;2023-05-10T02:23:02;12.20;99.90
21115;DHT22;10715;48.546;9.896;2023-05-10T02:25:29;12.20;99.90
21115;DHT22;10715;48.546;9.896;2023-05-10T02:27:57;12.20;99.90
21115;DHT22;10715;48.546;9.896;2023-05-10T02:30:23;12.20;99.90
21115;DHT22;10715;48.546;9.896;2023-05-10T02:32:50;12.10;99.90
21115;DHT22;10715;48.546;9.896;2023-05-10T02:35:17;12.10;99.90
21115;DHT22;10715;48.546;9.896;2023-05-10T02:37:43;12.10;99.90
21115;DHT22;10715;48.546;9.896;2023-05-10T02:40:11;12.10;99.90
21115;DHT22;10715;48.546;9.896;2023-05-10T02:42:38;12.00;99.90
21115;DHT22;10715;48.546;9.896;2023-05-10T02:45:10;12.00;99.90
21115;DHT22;10715;48.546;9.896;2023-05-10T02:47:37;12.00;99.90
21115;DHT22;10715;48.546;9.896;2023-05-10T02:50:03;11.90;99.90
21115;DHT22;10715;48.546;9.896;2023-05-10T02:52:34;11.90;99.90
21115;DHT22;10715;48.546;9.896;2023-05-10T02:55:03;11.90;99.90
21115;DHT22;10715;48.546;9.896;2023-05-10T02:57:33;11.80;99.90
21115;DHT22;10715;48.546;9.896;2023-05-10T02:59:59;11.80;99.90
21115;DHT22;10715;48.546;9.896;2023-05-10T03:02:26;11.80;99.90
21115;DHT22;10715;48.546;9.896;2023-05-10T03:04:52;11.80;99.90
21115;DHT22;10715;48.546;9.896;2023-05-10T03:07:18;11.70;99.90
21115;DHT22;10715;48.546;9.896;2023-05-10T03:09:47;11.70;99.90
21115;DHT22;10715;48.546;9.896;2023-05-10T03:12:41;11.70;99.90
21115;DHT22;10715;48.546;9.896;2023-05-10T03:15:25;11.60;99.90
21115;DHT22;10715;48.546;9.896;2023-05-10T03:18:21;11.60;99.90
21115;DHT22;10715;48.546;9.896;2023-05-10T03:20:57;11.60;99.90
21115;DHT22;10715;48.546;9.896;2023-05-10T03:23:48;11.50;99.90
21115;DHT22;10715;48.546;9.896;2023-05-10T03:26:24;11.50;99.90
21115;DHT22;10715;48.546;9.896;2023-05-10T03:28:52;11.50;99.90
21115;DHT22;10715;48.546;9.896;2023-05-10T03:31:19;11.50;99.90
21115;DHT22;10715;48.546;9.896;2023-05-10T03:33:52;11.50;99.90
21115;DHT22;10715;48.546;9.896;2023-05-10T03:36:18;11.50;99.90
21115;DHT22;10715;48.546;9.896;2023-05-10T03:38:44;11.40;99.90
21115;DHT22;10715;48.546;9.896;2023-05-10T03:41:10;11.40;99.90
21115;DHT22;10715;48.546;9.896;2023-05-10T03:43:36;11.40;99.90
21115;DHT22;10715;48.546;9.896;2023-05-10T03:46:05;11.40;99.90
21115;DHT22;10715;48.546;9.896;2023-05-10T03:48:32;11.30;99.90
21115;DHT22;10715;48.546;9.896;2023-05-10T03:50:58;11.30;99.90
21115;DHT22;10715;48.546;9.896;2023-05-10T03:53:24;11.30;99.90
21115;DHT22;10715;48.546;9.896;2023-05-10T03:55:50;11.30;99.90
21115;DHT22;10715;48.546;9.896;2023-05-10T03:58:16;11.30;99.90
21115;DHT22;10715;48.546;9.896;2023-05-10T04:00:41;11.20;99.90
21115;DHT22;10715;48.546;9.896;2023-05-10T04:03:13;11.20;99.90
21115;DHT22;10715;48.546;9.896;2023-05-10T04:05:39;11.20;99.90
21115;DHT22;10715;48.546;9.896;2023-05-10T04:08:05;11.20;99.90
21115;DHT22;10715;48.546;9.896;2023-05-10T04:10:31;11.20;99.90
21115;DHT22;10715;48.546;9.896;2023-05-10T04:12:57;11.20;99.90
21115;DHT22;10715;48.546;9.896;2023-05-10T04:15:23;11.10;99.90
21115;DHT22;10715;48.546;9.896;2023-05-10T04:17:49;11.10;99.90
21115;DHT22;10715;48.546;9.896;2023-05-10T04:20:15;11.10;99.90
21115;DHT22;10715;48.546;9.896;2023-05-10T04:22:41;11.10;99.90
21115;DHT22;10715;48.546;9.896;2023-05-10T04:25:07;11.10;99.90
21115;DHT22;10715;48.546;9.896;2023-05-10T04:27:33;11.10;99.90
21115;DHT22;10715;48.546;9.896;2023-05-10T04:29:59;11.10;99.90
21115;DHT22;10715;48.546;9.896;2023-05-10T04:32:24;11.10;99.90
21115;DHT22;10715;48.546;9.896;2023-05-10T04:34:50;11.10;99.90
21115;DHT22;10715;48.546;9.896;2023-05-10T04:37:17;11.10;99.90
21115;DHT22;10715;48.546;9.896;2023-05-10T04:39:43;11.10;99.90
21115;DHT22;10715;48.546;9.896;2023-05-10T04:42:09;11.10;99.90
21115;DHT22;10715;48.546;9.896;2023-05-10T04:44:35;11.10;99.90
21115;DHT22;10715;48.546;9.896;2023-05-10T04:47:01;11.10;99.90
21115;DHT22;10715;48.546;9.896;2023-05-10T04:49:28;11.10;99.90
21115;DHT22;10715;48.546;9.896;2023-05-10T04:51:53;11.10;99.90
21115;DHT22;10715;48.546;9.896;2023-05-10T04:54:19;11.10;99.90
21115;DHT22;10715;48.546;9.896;2023-05-10T04:56:45;11.20;99.90
21115;DHT22;10715;48.546;9.896;2023-05-10T04:59:11;11.20;99.90
21115;DHT22;10715;48.546;9.896;2023-05-10T05:01:36;11.20;99.90
21115;DHT22;10715;48.546;9.896;2023-05-10T05:04:02;11.20;99.90
21115;DHT22;10715;48.546;9.896;2023-05-10T05:06:28;11.20;99.90
21115;DHT22;10715;48.546;9.896;2023-05-10T05:08:54;11.20;99.90
21115;DHT22;10715;48.546;9.896;2023-05-10T05:11:19;11.20;99.90
21115;DHT22;10715;48.546;9.896;2023-05-10T05:13:46;11.20;99.90
21115;DHT22;10715;48.546;9.896;2023-05-10T05:16:12;11.20;99.90
21115;DHT22;10715;48.546;9.896;2023-05-10T05:18:37;11.20;99.90
21115;DHT22;10715;48.546;9.896;2023-05-10T05:21:12;11.30;99.90
21115;DHT22;10715;48.546;9.896;2023-05-10T05:23:38;11.30;99.90
21115;DHT22;10715;48.546;9.896;2023-05-10T05:26:04;11.30;99.90
21115;DHT22;10715;48.546;9.896;2023-05-10T05:28:30;11.30;99.90
21115;DHT22;10715;48.546;9.896;2023-05-10T05:30:58;11.30;99.90
21115;DHT22;10715;48.546;9.896;2023-05-10T05:33:24;11.40;99.90
21115;DHT22;10715;48.546;9.896;2023-05-10T05:35:49;11.30;99.90
21115;DHT22;10715;48.546;9.896;2023-05-10T05:38:16;11.30;99.90
21115;DHT22;10715;48.546;9.896;2023-05-10T05:40:42;11.40;99.90
21115;DHT22;10715;48.546;9.896;2023-05-10T05:43:08;11.40;99.90
21115;DHT22;10715;48.546;9.896;2023-05-10T05:45:34;11.40;99.90
21115;DHT22;10715;48.546;9.896;2023-05-10T05:48:00;11.40;99.90
21115;DHT22;10715;48.546;9.896;2023-05-10T05:50:25;11.50;99.90
21115;DHT22;10715;48.546;9.896;2023-05-10T05:52:51;11.50;99.90
21115;DHT22;10715;48.546;9.896;2023-05-10T05:55:17;11.50;99.90
21115;DHT22;10715;48.546;9.896;2023-05-10T05:57:42;11.60;99.90
21115;DHT22;10715;48.546;9.896;2023-05-10T06:00:08;11.60;99.90
21115;DHT22;10715;48.546;9.896;2023-05-10T06:02:34;11.60;99.90
21115;DHT22;10715;48.546;9.896;2023-05-10T06:05:00;11.60;99.90
21115;DHT22;10715;48.546;9.896;2023-05-10T06:07:25;11.60;99.90
21115;DHT22;10715;48.546;9.896;2023-05-10T06:09:51;11.70;99.90
21115;DHT22;10715;48.546;9.896;2023-05-10T06:12:17;11.70;99.90
21115;DHT22;10715;48.546;9.896;2023-05-10T06:14:43;11.70;99.90
21115;DHT22;10715;48.546;9.896;2023-05-10T06:17:08;11.70;99.90
21115;DHT22;10715;48.546;9.896;2023-05-10T06:19:34;11.80;99.90
21115;DHT22;10715;48.546;9.896;2023-05-10T06:22:00;11.80;99.90
21115;DHT22;10715;48.546;9.896;2023-05-10T06:24:25;11.80;99.90
21115;DHT22;10715;48.546;9.896;2023-05-10T06:26:52;11.80;99.90
21115;DHT22;10715;48.546;9.896;2023-05-10T06:29:18;11.90;99.90
21115;DHT22;10715;48.546;9.896;2023-05-10T06:31:43;11.90;99.90
21115;DHT22;10715;48.546;9.896;2023-05-10T06:34:09;11.90;99.90
21115;DHT22;10715;48.546;9.896;2023-05-10T06:36:37;12.00;99.90
21115;DHT22;10715;48.546;9.896;2023-05-10T06:39:02;12.00;99.90
21115;DHT22;10715;48.546;9.896;2023-05-10T06:41:28;12.00;99.90
21115;DHT22;10715;48.546;9.896;2023-05-10T06:43:54;12.00;99.90
21115;DHT22;10715;48.546;9.896;2023-05-10T06:46:20;12.10;99.90
21115;DHT22;10715;48.546;9.896;2023-05-10T06:48:46;12.10;99.90
21115;DHT22;10715;48.546;9.896;2023-05-10T06:51:12;12.10;99.90
21115;DHT22;10715;48.546;9.896;2023-05-10T06:53:37;12.10;99.90
21115;DHT22;10715;48.546;9.896;2023-05-10T06:56:03;12.10;99.90
21115;DHT22;10715;48.546;9.896;2023-05-10T06:58:29;12.10;99.90
21115;DHT22;10715;48.546;9.896;2023-05-10T07:01:02;12.20;99.90
21115;DHT22;10715;48.546;9.896;2023-05-10T07:03:28;12.20;99.90
21115;DHT22;10715;48.546;9.896;2023-05-10T07:05:53;12.20;99.90
21115;DHT22;10715;48.546;9.896;2023-05-10T07:08:20;12.20;99.90
21115;DHT22;10715;48.546;9.896;2023-05-10T07:10:46;12.20;99.90
21115;DHT22;10715;48.546;9.896;2023-05-10T07:13:11;12.20;99.90
21115;DHT22;10715;48.546;9.896;2023-05-10T07:15:37;12.20;99.90
21115;DHT22;10715;48.546;9.896;2023-05-10T07:18:03;12.30;99.90
21115;DHT22;10715;48.546;9.896;2023-05-10T07:20:29;12.30;99.90
21115;DHT22;10715;48.546;9.896;2023-05-10T07:22:55;12.30;99.90
21115;DHT22;10715;48.546;9.896;2023-05-10T07:25:21;12.40;99.90
21115;DHT22;10715;48.546;9.896;2023-05-10T07:27:46;12.40;99.90
21115;DHT22;10715;48.546;9.896;2023-05-10T07:30:13;12.40;99.90
21115;DHT22;10715;48.546;9.896;2023-05-10T07:32:39;12.40;99.90
21115;DHT22;10715;48.546;9.896;2023-05-10T07:35:07;12.50;99.90
21115;DHT22;10715;48.546;9.896;2023-05-10T07:37:33;12.50;99.90
21115;DHT22;10715;48.546;9.896;2023-05-10T07:39:59;12.50;99.90
21115;DHT22;10715;48.546;9.896;2023-05-10T07:42:25;12.50;99.90
21115;DHT22;10715;48.546;9.896;2023-05-10T07:44:50;12.60;99.90
21115;DHT22;10715;48.546;9.896;2023-05-10T07:47:16;12.60;99.90
21115;DHT22;10715;48.546;9.896;2023-05-10T07:49:42;12.70;99.90
21115;DHT22;10715;48.546;9.896;2023-05-10T07:52:08;12.70;99.90
21115;DHT22;10715;48.546;9.896;2023-05-10T07:54:34;12.80;99.90
21115;DHT22;10715;48.546;9.896;2023-05-10T07:57:00;12.80;99.90
21115;DHT22;10715;48.546;9.896;2023-05-10T07:59:26;12.80;99.90
21115;DHT22;10715;48.546;9.896;2023-05-10T08:01:51;12.80;99.90
21115;DHT22;10715;48.546;9.896;2023-05-10T08:04:17;12.80;99.90
21115;DHT22;10715;48.546;9.896;2023-05-10T08:06:43;12.70;99.90
21115;DHT22;10715;48.546;9.896;2023-05-10T08:09:09;12.70;99.90
21115;DHT22;10715;48.546;9.896;2023-05-10T08:11:35;12.70;99.90
21115;DHT22;10715;48.546;9.896;2023-05-10T08:14:01;12.70;99.90
21115;DHT22;10715;48.546;9.896;2023-05-10T08:16:27;12.70;99.90
21115;DHT22;10715;48.546;9.896;2023-05-10T08:18:52;12.70;99.90
21115;DHT22;10715;48.546;9.896;2023-05-10T08:21:20;12.70;99.90
21115;DHT22;10715;48.546;9.896;2023-05-10T08:23:46;12.70;99.90
21115;DHT22;10715;48.546;9.896;2023-05-10T08:26:12;12.70;99.90
21115;DHT22;10715;48.546;9.896;2023-05-10T08:28:37;12.70;99.90
21115;DHT22;10715;48.546;9.896;2023-05-10T08:31:04;12.70;99.90
21115;DHT22;10715;48.546;9.896;2023-05-10T08:33:30;12.70;99.90
21115;DHT22;10715;48.546;9.896;2023-05-10T08:35:56;12.70;99.90
21115;DHT22;10715;48.546;9.896;2023-05-10T08:38:22;12.70;99.90
21115;DHT22;10715;48.546;9.896;2023-05-10T08:40:49;12.70;99.90
21115;DHT22;10715;48.546;9.896;2023-05-10T08:43:16;12.80;99.90
21115;DHT22;10715;48.546;9.896;2023-05-10T08:45:43;12.80;99.90
21115;DHT22;10715;48.546;9.896;2023-05-10T08:48:14;12.80;99.90
21115;DHT22;10715;48.546;9.896;2023-05-10T08:50:41;12.90;99.90
21115;DHT22;10715;48.546;9.896;2023-05-10T08:53:10;12.90;99.90
21115;DHT22;10715;48.546;9.896;2023-05-10T08:55:36;13.00;99.90
21115;DHT22;10715;48.546;9.896;2023-05-10T08:58:05;13.10;99.90
21115;DHT22;10715;48.546;9.896;2023-05-10T09:00:31;13.10;99.90
21115;DHT22;10715;48.546;9.896;2023-05-10T09:02:58;13.20;99.90
21115;DHT22;10715;48.546;9.896;2023-05-10T09:05:24;13.20;99.90
21115;DHT22;10715;48.546;9.896;2023-05-10T09:07:50;13.30;99.90
21115;DHT22;10715;48.546;9.896;2023-05-10T09:10:16;13.30;99.90
21115;DHT22;10715;48.546;9.896;2023-05-10T09:12:43;13.40;99.90
21115;DHT22;10715;48.546;9.896;2023-05-10T09:15:11;13.40;99.90
21115;DHT22;10715;48.546;9.896;2023-05-10T09:17:38;13.50;99.90
21115;DHT22;10715;48.546;9.896;2023-05-10T09:20:06;13.50;99.90
21115;DHT22;10715;48.546;9.896;2023-05-10T09:22:35;13.50;99.90
21115;DHT22;10715;48.546;9.896;2023-05-10T09:25:07;13.60;99.90
21115;DHT22;10715;48.546;9.896;2023-05-10T09:27:34;13.70;99.90
21115;DHT22;10715;48.546;9.896;2023-05-10T09:30:00;13.70;99.90
21115;DHT22;10715;48.546;9.896;2023-05-10T09:32:41;13.80;99.90
21115;DHT22;10715;48.546;9.896;2023-05-10T09:35:18;13.80;99.90
21115;DHT22;10715;48.546;9.896;2023-05-10T09:37:46;13.80;99.90
21115;DHT22;10715;48.546;9.896;2023-05-10T09:40:17;13.90;99.90
21115;DHT22;10715;48.546;9.896;2023-05-10T09:45:16;13.90;99.90
21115;DHT22;10715;48.546;9.896;2023-05-10T09:47:42;13.90;99.90
21115;DHT22;10715;48.546;9.896;2023-05-10T09:50:09;13.90;99.90
21115;DHT22;10715;48.546;9.896;2023-05-10T09:52:55;14.00;99.90
21115;DHT22;10715;48.546;9.896;2023-05-10T09:55:25;14.00;99.90
21115;DHT22;10715;48.546;9.896;2023-05-10T09:57:59;14.00;99.90
21115;DHT22;10715;48.546;9.896;2023-05-10T10:00:26;14.00;99.90
21115;DHT22;10715;48.546;9.896;2023-05-10T10:02:59;14.00;99.90
21115;DHT22;10715;48.546;9.896;2023-05-10T10:05:33;14.00;99.90
21115;DHT22;10715;48.546;9.896;2023-05-10T10:08:00;14.00;99.90
21115;DHT22;10715;48.546;9.896;2023-05-10T10:10:26;14.00;99.90
21115;DHT22;10715;48.546;9.896;2023-05-10T10:12:53;14.00;99.90
21115;DHT22;10715;48.546;9.896;2023-05-10T10:15:21;14.00;99.90
21115;DHT22;10715;48.546;9.896;2023-05-10T10:17:48;13.90;99.90
21115;DHT22;10715;48.546;9.896;2023-05-10T10:20:15;13.90;99.90
21115;DHT22;10715;48.546;9.896;2023-05-10T10:22:41;13.90;99.90
21115;DHT22;10715;48.546;9.896;2023-05-10T10:25:08;13.80;99.90
21115;DHT22;10715;48.546;9.896;2023-05-10T10:35:17;13.90;99.90
21115;DHT22;10715;48.546;9.896;2023-05-10T10:37:45;13.90;99.90
21115;DHT22;10715;48.546;9.896;2023-05-10T10:40:33;13.90;99.90
21115;DHT22;10715;48.546;9.896;2023-05-10T10:43:28;13.90;99.90
21115;DHT22;10715;48.546;9.896;2023-05-10T10:46:13;14.00;99.90
21115;DHT22;10715;48.546;9.896;2023-05-10T10:48:41;14.10;99.90
21115;DHT22;10715;48.546;9.896;2023-05-10T10:51:07;14.10;99.90
21115;DHT22;10715;48.546;9.896;2023-05-10T10:53:33;14.10;99.90
21115;DHT22;10715;48.546;9.896;2023-05-10T10:56:06;14.20;99.90
21115;DHT22;10715;48.546;9.896;2023-05-10T10:58:39;14.20;99.90
21115;DHT22;10715;48.546;9.896;2023-05-10T11:01:15;14.20;99.90
21115;DHT22;10715;48.546;9.896;2023-05-10T11:06:36;14.20;99.90
21115;DHT22;10715;48.546;9.896;2023-05-10T11:09:12;14.20;99.90
21115;DHT22;10715;48.546;9.896;2023-05-10T11:11:54;14.20;99.90
21115;DHT22;10715;48.546;9.896;2023-05-10T11:14:21;14.30;99.90
21115;DHT22;10715;48.546;9.896;2023-05-10T11:16:50;14.30;99.90
21115;DHT22;10715;48.546;9.896;2023-05-10T11:19:17;14.30;99.90
21115;DHT22;10715;48.546;9.896;2023-05-10T11:24:31;14.40;99.90
21115;DHT22;10715;48.546;9.896;2023-05-10T11:26:57;14.50;99.90
21115;DHT22;10715;48.546;9.896;2023-05-10T11:29:23;14.50;99.90
21115;DHT22;10715;48.546;9.896;2023-05-10T11:31:51;14.50;99.90
21115;DHT22;10715;48.546;9.896;2023-05-10T11:34:28;14.50;99.90
21115;DHT22;10715;48.546;9.896;2023-05-10T11:36:56;14.40;99.90
21115;DHT22;10715;48.546;9.896;2023-05-10T11:39:26;14.40;99.90
21115;DHT22;10715;48.546;9.896;2023-05-10T11:41:53;14.40;99.90
21115;DHT22;10715;48.546;9.896;2023-05-10T11:44:19;14.40;99.90
21115;DHT22;10715;48.546;9.896;2023-05-10T11:46:45;14.30;99.90
21115;DHT22;10715;48.546;9.896;2023-05-10T11:49:10;14.30;99.90
21115;DHT22;10715;48.546;9.896;2023-05-10T11:51:37;14.30;99.90
21115;DHT22;10715;48.546;9.896;2023-05-10T11:54:07;14.20;99.90
21115;DHT22;10715;48.546;9.896;2023-05-10T11:56:34;14.10;99.90
21115;DHT22;10715;48.546;9.896;2023-05-10T11:59:00;14.10;99.90
21115;DHT22;10715;48.546;9.896;2023-05-10T12:01:28;14.10;99.90
21115;DHT22;10715;48.546;9.896;2023-05-10T12:03:55;14.10;99.90
21115;DHT22;10715;48.546;9.896;2023-05-10T12:06:30;14.10;99.90
21115;DHT22;10715;48.546;9.896;2023-05-10T12:08:57;14.10;99.90
21115;DHT22;10715;48.546;9.896;2023-05-10T12:11:27;14.10;99.90
21115;DHT22;10715;48.546;9.896;2023-05-10T12:13:54;14.10;99.90
21115;DHT22;10715;48.546;9.896;2023-05-10T12:16:25;14.00;99.90
21115;DHT22;10715;48.546;9.896;2023-05-10T12:18:53;14.00;99.90
21115;DHT22;10715;48.546;9.896;2023-05-10T12:21:20;14.00;99.90
21115;DHT22;10715;48.546;9.896;2023-05-10T12:23:48;14.00;99.90
21115;DHT22;10715;48.546;9.896;2023-05-10T12:26:14;14.00;99.90
21115;DHT22;10715;48.546;9.896;2023-05-10T12:28:40;14.00;99.90
21115;DHT22;10715;48.546;9.896;2023-05-10T12:31:06;14.00;99.90
21115;DHT22;10715;48.546;9.896;2023-05-10T12:33:45;14.00;99.90
21115;DHT22;10715;48.546;9.896;2023-05-10T12:36:15;13.80;99.90
21115;DHT22;10715;48.546;9.896;2023-05-10T12:38:45;13.80;99.90
21115;DHT22;10715;48.546;9.896;2023-05-10T12:41:15;13.70;99.90
21115;DHT22;10715;48.546;9.896;2023-05-10T12:43:41;13.60;99.90
21115;DHT22;10715;48.546;9.896;2023-05-10T12:46:17;13.50;99.90
21115;DHT22;10715;48.546;9.896;2023-05-10T12:48:44;13.30;99.90
21115;DHT22;10715;48.546;9.896;2023-05-10T12:51:11;13.30;99.90
21115;DHT22;10715;48.546;9.896;2023-05-10T12:53:39;13.20;99.90
21115;DHT22;10715;48.546;9.896;2023-05-10T12:56:05;13.10;99.90
21115;DHT22;10715;48.546;9.896;2023-05-10T12:58:31;13.00;99.90
21115;DHT22;10715;48.546;9.896;2023-05-10T13:00:58;12.90;99.90
21115;DHT22;10715;48.546;9.896;2023-05-10T13:03:24;12.80;99.90
21115;DHT22;10715;48.546;9.896;2023-05-10T13:05:50;12.70;99.90
21115;DHT22;10715;48.546;9.896;2023-05-10T13:08:15;12.70;99.90
21115;DHT22;10715;48.546;9.896;2023-05-10T13:10:41;12.70;99.90
21115;DHT22;10715;48.546;9.896;2023-05-10T13:13:07;12.70;99.90
21115;DHT22;10715;48.546;9.896;2023-05-10T13:15:34;12.60;99.90
21115;DHT22;10715;48.546;9.896;2023-05-10T13:18:00;12.50;99.90
21115;DHT22;10715;48.546;9.896;2023-05-10T13:20:26;12.50;99.90
21115;DHT22;10715;48.546;9.896;2023-05-10T13:22:52;12.50;99.90
21115;DHT22;10715;48.546;9.896;2023-05-10T13:25:18;12.40;99.90
21115;DHT22;10715;48.546;9.896;2023-05-10T13:27:43;12.40;99.90
21115;DHT22;10715;48.546;9.896;2023-05-10T13:30:10;12.40;99.90
21115;DHT22;10715;48.546;9.896;2023-05-10T13:32:37;12.40;99.90
21115;DHT22;10715;48.546;9.896;2023-05-10T13:35:03;12.30;99.90
21115;DHT22;10715;48.546;9.896;2023-05-10T13:37:29;12.30;99.90
21115;DHT22;10715;48.546;9.896;2023-05-10T13:39:55;12.30;99.90
21115;DHT22;10715;48.546;9.896;2023-05-10T13:42:22;12.30;99.90
21115;DHT22;10715;48.546;9.896;2023-05-10T13:44:48;12.20;99.90
21115;DHT22;10715;48.546;9.896;2023-05-10T13:47:14;12.20;99.90
21115;DHT22;10715;48.546;9.896;2023-05-10T13:49:40;12.20;99.90
21115;DHT22;10715;48.546;9.896;2023-05-10T13:52:05;12.20;99.90
21115;DHT22;10715;48.546;9.896;2023-05-10T13:54:38;12.20;99.90
21115;DHT22;10715;48.546;9.896;2023-05-10T13:57:04;12.30;99.90
21115;DHT22;10715;48.546;9.896;2023-05-10T13:59:30;12.30;99.90
21115;DHT22;10715;48.546;9.896;2023-05-10T14:01:59;12.30;99.90
21115;DHT22;10715;48.546;9.896;2023-05-10T14:04:25;12.30;99.90
21115;DHT22;10715;48.546;9.896;2023-05-10T14:06:51;12.30;99.90
21115;DHT22;10715;48.546;9.896;2023-05-10T14:09:18;12.30;99.90
21115;DHT22;10715;48.546;9.896;2023-05-10T14:11:43;12.30;99.90
21115;DHT22;10715;48.546;9.896;2023-05-10T14:14:10;12.30;99.90
21115;DHT22;10715;48.546;9.896;2023-05-10T14:16:36;12.30;99.90
21115;DHT22;10715;48.546;9.896;2023-05-10T14:19:02;12.40;99.90
21115;DHT22;10715;48.546;9.896;2023-05-10T14:21:28;12.40;99.90
21115;DHT22;10715;48.546;9.896;2023-05-10T14:23:56;12.40;99.90
21115;DHT22;10715;48.546;9.896;2023-05-10T14:26:21;12.40;99.90
21115;DHT22;10715;48.546;9.896;2023-05-10T14:28:47;12.50;99.90
21115;DHT22;10715;48.546;9.896;2023-05-10T14:31:13;12.50;99.90
21115;DHT22;10715;48.546;9.896;2023-05-10T14:33:40;12.50;99.90
21115;DHT22;10715;48.546;9.896;2023-05-10T14:36:06;12.60;99.90
21115;DHT22;10715;48.546;9.896;2023-05-10T14:38:32;12.60;99.90
21115;DHT22;10715;48.546;9.896;2023-05-10T14:40:58;12.60;99.90
21115;DHT22;10715;48.546;9.896;2023-05-10T14:43:24;12.70;99.90
21115;DHT22;10715;48.546;9.896;2023-05-10T14:45:50;12.70;99.90
21115;DHT22;10715;48.546;9.896;2023-05-10T14:48:15;12.70;99.90
21115;DHT22;10715;48.546;9.896;2023-05-10T14:50:43;12.80;99.90
21115;DHT22;10715;48.546;9.896;2023-05-10T14:53:09;12.80;99.90
21115;DHT22;10715;48.546;9.896;2023-05-10T14:55:35;12.80;99.90
21115;DHT22;10715;48.546;9.896;2023-05-10T14:58:02;12.90;99.90
21115;DHT22;10715;48.546;9.896;2023-05-10T15:00:29;12.90;99.90
21115;DHT22;10715;48.546;9.896;2023-05-10T15:02:55;12.90;99.90
21115;DHT22;10715;48.546;9.896;2023-05-10T15:05:20;12.90;99.90
21115;DHT22;10715;48.546;9.896;2023-05-10T15:07:46;12.90;99.90
21115;DHT22;10715;48.546;9.896;2023-05-10T15:10:12;12.90;99.90
21115;DHT22;10715;48.546;9.896;2023-05-10T15:12:39;12.90;99.90
21115;DHT22;10715;48.546;9.896;2023-05-10T15:15:05;12.90;99.90
21115;DHT22;10715;48.546;9.896;2023-05-10T15:17:31;12.90;99.90
21115;DHT22;10715;48.546;9.896;2023-05-10T15:19:57;13.00;99.90
21115;DHT22;10715;48.546;9.896;2023-05-10T15:22:23;13.00;99.90
21115;DHT22;10715;48.546;9.896;2023-05-10T15:24:49;13.00;99.90
21115;DHT22;10715;48.546;9.896;2023-05-10T15:27:15;13.00;99.90
21115;DHT22;10715;48.546;9.896;2023-05-10T15:29:41;13.00;99.90
21115;DHT22;10715;48.546;9.896;2023-05-10T15:32:07;13.00;99.90
21115;DHT22;10715;48.546;9.896;2023-05-10T15:34:32;13.00;99.90
21115;DHT22;10715;48.546;9.896;2023-05-10T15:36:58;13.00;99.90
21115;DHT22;10715;48.546;9.896;2023-05-10T15:39:24;13.00;99.90
21115;DHT22;10715;48.546;9.896;2023-05-10T15:41:51;13.00;99.90
21115;DHT22;10715;48.546;9.896;2023-05-10T15:44:16;13.00;99.90
21115;DHT22;10715;48.546;9.896;2023-05-10T15:46:43;13.00;99.90
21115;DHT22;10715;48.546;9.896;2023-05-10T15:49:09;13.00;99.90
21115;DHT22;10715;48.546;9.896;2023-05-10T15:51:35;13.00;99.90
21115;DHT22;10715;48.546;9.896;2023-05-10T15:54:00;13.00;99.90
21115;DHT22;10715;48.546;9.896;2023-05-10T15:56:31;13.00;99.90
21115;DHT22;10715;48.546;9.896;2023-05-10T15:58:58;13.00;99.90
21115;DHT22;10715;48.546;9.896;2023-05-10T16:01:23;13.00;99.90